createdAt,value
2023-04-30T16:02:33.285Z,1.50
2023-04-30T16:05:00.132Z,1.40
2023-04-30T16:07:34.271Z,1.80
2023-04-30T16:10:01.423Z,1.30
2023-04-30T16:12:35.214Z,1.50
2023-04-30T16:15:02.084Z,1.67
2023-04-30T16:17:36.368Z,1.80
2023-04-30T16:20:03.634Z,1.50
2023-04-30T16:22:37.280Z,1.70
2023-04-30T16:25:04.602Z,1.50
2023-04-30T16:27:38.226Z,1.50
2023-04-30T16:30:06.058Z,1.60
2023-04-30T16:32:40.386Z,1.52
2023-04-30T16:35:07.665Z,1.23
2023-04-30T16:37:34.387Z,1.70
2023-04-30T16:40:08.243Z,1.70
2023-04-30T16:42:35.466Z,1.70
2023-04-30T16:45:09.336Z,1.77
2023-04-30T16:47:36.294Z,1.45
2023-04-30T16:50:10.261Z,1.70
2023-04-30T16:52:37.135Z,1.45
2023-04-30T16:55:11.239Z,1.70
2023-04-30T16:57:37.976Z,2.10
2023-04-30T17:00:26.239Z,1.70
2023-04-30T17:02:53.668Z,1.90
2023-04-30T17:05:32.384Z,1.60
2023-04-30T17:07:59.278Z,1.70
2023-04-30T17:16:41.294Z,1.63
2023-04-30T17:19:08.257Z,1.60
2023-04-30T17:24:22.730Z,1.67
2023-04-30T17:26:57.248Z,1.77
2023-04-30T17:29:30.219Z,1.77
2023-04-30T17:34:46.938Z,1.60
2023-04-30T17:37:20.349Z,2.03
2023-04-30T17:43:31.337Z,2.17
2023-04-30T17:45:58.332Z,2.08
2023-04-30T17:48:35.057Z,1.98
2023-04-30T17:51:03.646Z,1.92
2023-04-30T17:56:16.787Z,1.77
2023-04-30T17:58:52.351Z,2.00
2023-04-30T18:04:59.295Z,1.73
2023-04-30T18:07:31.940Z,1.65
2023-04-30T18:10:05.352Z,1.85
2023-04-30T18:12:32.325Z,2.10
2023-04-30T18:15:08.248Z,2.20
2023-04-30T18:17:38.337Z,2.17
2023-04-30T18:20:13.750Z,1.95
2023-04-30T18:22:53.133Z,2.35
2023-04-30T18:25:26.453Z,2.15
2023-04-30T18:28:00.299Z,1.80
2023-04-30T18:30:29.260Z,1.92
2023-04-30T18:39:21.596Z,1.65
2023-04-30T18:41:56.335Z,1.67
2023-04-30T18:44:48.210Z,1.60
2023-04-30T18:47:24.353Z,1.90
2023-04-30T18:49:51.459Z,3.10
2023-04-30T18:52:25.331Z,5.72
2023-04-30T18:54:52.468Z,3.00
2023-04-30T18:57:21.516Z,2.65
2023-04-30T18:59:58.589Z,2.33
2023-04-30T19:02:34.818Z,2.60
2023-04-30T19:08:05.355Z,2.08
2023-04-30T19:10:40.390Z,1.95
2023-04-30T19:13:14.425Z,2.17
2023-04-30T19:15:48.963Z,2.67
2023-04-30T19:18:23.407Z,2.72
2023-04-30T19:23:46.421Z,2.17
2023-04-30T19:26:22.389Z,2.30
2023-04-30T19:28:52.109Z,2.72
2023-04-30T19:31:31.872Z,2.15
2023-04-30T19:36:56.651Z,2.08
2023-04-30T19:39:28.986Z,2.35
2023-04-30T19:44:44.414Z,2.53
2023-04-30T19:57:57.319Z,2.90
2023-04-30T20:06:33.468Z,2.88
2023-04-30T20:09:09.447Z,2.50
2023-04-30T20:11:36.586Z,3.10
2023-04-30T20:14:14.015Z,2.90
2023-04-30T20:23:52.414Z,2.65
2023-04-30T20:26:21.316Z,2.85
2023-04-30T20:34:16.488Z,2.25
2023-04-30T20:52:31.396Z,2.58
2023-04-30T20:55:10.438Z,2.90
2023-04-30T20:57:45.411Z,2.55
2023-04-30T21:00:15.340Z,2.92
2023-04-30T21:02:56.736Z,2.92
2023-04-30T21:05:31.464Z,2.35
2023-04-30T21:10:53.481Z,2.70
2023-04-30T21:16:08.630Z,2.33
2023-04-30T21:19:07.602Z,2.80
2023-04-30T21:21:37.099Z,2.78
2023-04-30T21:30:37.575Z,5.72
2023-04-30T21:33:32.723Z,3.95
2023-04-30T21:36:00.821Z,3.17
2023-04-30T21:41:16.506Z,2.97
2023-04-30T21:43:57.285Z,3.10
2023-04-30T21:49:12.961Z,3.08
2023-04-30T21:51:49.489Z,3.03
2023-04-30T21:54:31.888Z,3.13
2023-04-30T22:02:42.229Z,3.33
2023-04-30T22:08:07.625Z,2.90
2023-04-30T22:11:24.497Z,3.72
2023-04-30T22:13:53.829Z,2.90
2023-04-30T22:19:11.267Z,3.03
2023-04-30T22:22:14.526Z,3.10
2023-04-30T22:24:41.727Z,2.83
2023-04-30T22:27:58.499Z,3.50
2023-04-30T22:31:08.612Z,3.20
2023-04-30T22:36:31.050Z,3.13
2023-04-30T22:39:06.463Z,3.95
2023-04-30T22:41:34.928Z,3.70
2023-04-30T22:44:21.472Z,3.10
2023-04-30T22:49:45.507Z,2.70
2023-04-30T22:52:15.579Z,3.17
2023-04-30T22:57:36.479Z,2.78
2023-04-30T23:00:31.487Z,3.25
2023-04-30T23:03:30.695Z,2.90
2023-04-30T23:08:53.254Z,2.67
2023-04-30T23:11:40.545Z,3.20
2023-04-30T23:14:10.043Z,2.70
2023-04-30T23:16:56.060Z,2.90
2023-04-30T23:19:23.409Z,2.97
2023-04-30T23:22:26.653Z,3.20
2023-04-30T23:24:58.582Z,2.72
2023-04-30T23:27:38.133Z,3.15
2023-04-30T23:30:08.144Z,2.83
2023-04-30T23:38:45.017Z,3.08
2023-04-30T23:42:16.755Z,3.10
2023-04-30T23:44:57.215Z,3.28
2023-04-30T23:47:25.521Z,3.38
